Main page
METAR-TAF:

METAR-TAF

Airports :

Greeley–Weld County Airport

Greeley, Colorado, United States

latitude: 40-26N, longitude: 104-38W, elevation: 4658 ft

Current weather observation

The report was made 33 minutes ago, at 14:56 UTC
Calm wind
Temperature 37°F
Humidity 75%
Pressure 30.36 in. Hg
Visibility: 8 miles
Overcast at a height of 1200 ft

METAR: KGXY 211456Z 00000KT 8SM OVC012 03/M01 A3036 RMK AO2 SLP313 T00281006 50003

Time: 09:29 (15:29 UTC)


TAF: missing

Weather observations and forecasts of more than 4000 airports (METAR and TAF reports).

The available stations are represented by yellow and red dots on the map.

Hover mouse over dot to see the name of the station.

Then click to see weather observations and forecasts.

To change the map : click on the green buttons with a black cross to zoom in, on the green button with a dash to zoom out, or on the green arrows for adjacent maps.


METAR-TAF: